createdAt,value
2019-06-20T00:00:52.995Z,16.40
2019-06-20T00:03:22.912Z,16.50
2019-06-20T00:05:52.416Z,16.40
2019-06-20T00:08:21.960Z,16.40
2019-06-20T00:10:51.478Z,16.40
2019-06-20T00:13:21.098Z,16.40
2019-06-20T00:15:50.556Z,16.40
2019-06-20T00:18:21.091Z,16.40
2019-06-20T00:20:50.554Z,16.40
2019-06-20T00:23:20.023Z,16.40
2019-06-20T00:25:49.474Z,16.30
2019-06-20T00:28:18.928Z,16.30
2019-06-20T00:30:48.446Z,16.30
2019-06-20T00:33:17.841Z,16.30
2019-06-20T00:35:47.283Z,16.30
2019-06-20T00:38:16.789Z,16.20
2019-06-20T00:40:46.237Z,16.10
2019-06-20T00:43:17.978Z,16.20
2019-06-20T00:45:46.768Z,16.20
2019-06-20T00:48:16.275Z,16.10
2019-06-20T00:50:45.740Z,16.10
2019-06-20T00:53:15.181Z,16.10
2019-06-20T00:55:44.633Z,16.10
2019-06-20T00:58:14.095Z,16.10
2019-06-20T01:00:43.545Z,16.00
2019-06-20T01:03:12.986Z,16.00
2019-06-20T01:05:43.649Z,16.00
2019-06-20T01:08:13.095Z,15.90
2019-06-20T01:10:42.824Z,15.80
2019-06-20T01:13:12.375Z,15.80
2019-06-20T01:15:41.831Z,15.80
2019-06-20T01:18:11.275Z,15.80
2019-06-20T01:20:40.815Z,15.80
2019-06-20T01:23:10.259Z,15.80
2019-06-20T01:25:42.527Z,15.70
2019-06-20T01:28:11.993Z,15.70
2019-06-20T01:30:53.805Z,15.70
2019-06-20T01:33:23.235Z,15.70
2019-06-20T01:35:52.691Z,15.70
2019-06-20T01:38:22.137Z,15.70
2019-06-20T01:40:51.631Z,15.60
2019-06-20T01:43:21.063Z,15.60
2019-06-20T01:45:50.510Z,15.60
2019-06-20T01:48:19.985Z,15.60
2019-06-20T01:50:49.500Z,15.60
2019-06-20T01:53:18.959Z,15.50
2019-06-20T01:55:48.499Z,15.50
2019-06-20T01:58:17.943Z,15.50
2019-06-20T02:00:51.983Z,15.50
2019-06-20T02:03:21.569Z,15.40
2019-06-20T02:05:51.079Z,15.40
2019-06-20T02:08:20.738Z,15.40
2019-06-20T02:10:50.209Z,15.30
2019-06-20T02:13:21.117Z,15.30
2019-06-20T02:15:50.567Z,15.30
2019-06-20T02:18:20.018Z,15.30
2019-06-20T02:20:52.388Z,15.30
2019-06-20T02:23:22.811Z,15.30
2019-06-20T02:25:52.405Z,15.30
2019-06-20T02:28:23.115Z,15.20
2019-06-20T02:30:52.626Z,15.20
2019-06-20T02:33:22.180Z,15.20
2019-06-20T02:35:51.619Z,15.20
2019-06-20T02:38:21.052Z,15.10
2019-06-20T02:40:50.515Z,15.10
2019-06-20T02:43:20.027Z,15.10
2019-06-20T02:45:49.512Z,15.10
2019-06-20T02:48:18.951Z,15.00
2019-06-20T02:50:48.492Z,15.00
2019-06-20T02:53:18.149Z,15.00
2019-06-20T02:55:47.759Z,15.00
2019-06-20T02:58:17.181Z,15.00
2019-06-20T03:00:59.574Z,15.00
2019-06-20T03:03:29.598Z,14.90
2019-06-20T03:05:59.823Z,14.90
2019-06-20T03:08:29.439Z,14.90
2019-06-20T03:10:58.958Z,14.90
2019-06-20T03:13:28.425Z,14.90
2019-06-20T03:15:57.932Z,14.90
2019-06-20T03:18:27.377Z,14.90
2019-06-20T03:20:56.830Z,14.90
2019-06-20T03:23:26.355Z,14.90
2019-06-20T03:25:55.823Z,14.80
2019-06-20T03:28:25.288Z,14.80
2019-06-20T03:30:54.733Z,14.80
2019-06-20T03:33:24.176Z,14.80
2019-06-20T03:35:53.637Z,14.80
2019-06-20T03:38:23.095Z,14.80
2019-06-20T03:40:52.539Z,14.80
2019-06-20T03:43:22.458Z,14.80
2019-06-20T03:45:51.906Z,14.80
2019-06-20T03:48:21.350Z,14.80
2019-06-20T03:50:50.808Z,14.90
2019-06-20T03:53:20.334Z,14.90
2019-06-20T03:55:49.777Z,14.90
2019-06-20T03:58:19.179Z,14.90
2019-06-20T04:00:48.639Z,14.90
2019-06-20T04:03:18.107Z,14.90
2019-06-20T04:05:47.571Z,14.80
2019-06-20T04:08:17.057Z,14.90
2019-06-20T04:10:46.527Z,14.90
2019-06-20T04:13:15.971Z,14.90
2019-06-20T04:15:45.431Z,14.90
2019-06-20T04:18:14.910Z,15.00
2019-06-20T04:20:44.363Z,15.00
2019-06-20T04:23:13.815Z,15.00
2019-06-20T04:25:43.295Z,15.10
2019-06-20T04:28:12.748Z,15.10
2019-06-20T04:30:42.196Z,15.20
2019-06-20T04:33:11.665Z,15.20
2019-06-20T04:35:41.115Z,15.20
2019-06-20T04:38:10.591Z,15.20
2019-06-20T04:40:40.044Z,15.30
2019-06-20T04:43:09.494Z,15.30
2019-06-20T04:45:55.823Z,15.30
2019-06-20T04:48:25.454Z,15.30
2019-06-20T04:50:54.898Z,15.30
2019-06-20T04:53:24.377Z,15.30
2019-06-20T04:55:53.831Z,15.30
2019-06-20T04:58:23.280Z,15.30
2019-06-20T05:00:54.007Z,15.30
2019-06-20T05:03:23.498Z,15.30
2019-06-20T05:05:53.179Z,15.30
2019-06-20T05:08:22.623Z,15.30
2019-06-20T05:10:52.096Z,15.40
2019-06-20T05:13:21.540Z,15.30
2019-06-20T05:15:53.011Z,15.30
2019-06-20T05:18:22.095Z,15.30
2019-06-20T05:20:51.556Z,15.30
2019-06-20T05:23:21.031Z,15.30
2019-06-20T05:25:50.566Z,15.30
2019-06-20T05:28:20.978Z,15.40
2019-06-20T05:30:50.462Z,15.30
2019-06-20T05:33:20.076Z,15.40
2019-06-20T05:35:51.749Z,15.40
2019-06-20T05:38:24.228Z,15.40
2019-06-20T05:40:56.678Z,15.50
2019-06-20T05:43:26.756Z,15.50
2019-06-20T05:46:09.672Z,15.40
2019-06-20T05:48:32.770Z,15.40
2019-06-20T05:51:02.389Z,15.50
2019-06-20T05:53:31.923Z,15.50
2019-06-20T05:56:01.466Z,15.50
2019-06-20T05:58:33.648Z,15.50
2019-06-20T06:01:05.132Z,15.60
2019-06-20T06:03:34.431Z,15.60
2019-06-20T06:06:07.187Z,15.60
2019-06-20T06:08:40.020Z,15.70
2019-06-20T06:11:11.096Z,15.70
2019-06-20T06:13:40.564Z,15.70
2019-06-20T06:16:25.323Z,15.70
2019-06-20T06:18:42.852Z,15.70
2019-06-20T06:21:12.311Z,15.80
2019-06-20T06:23:41.755Z,15.80
2019-06-20T06:26:14.073Z,15.80
2019-06-20T06:28:46.552Z,15.80
2019-06-20T06:31:18.026Z,15.70
2019-06-20T06:33:49.582Z,15.70
2019-06-20T06:36:22.061Z,15.70
2019-06-20T06:38:54.347Z,15.80
2019-06-20T06:41:30.955Z,15.80
2019-06-20T06:44:00.879Z,15.80
2019-06-20T06:46:43.582Z,15.90
2019-06-20T06:49:01.460Z,16.00
2019-06-20T06:51:30.976Z,16.10
2019-06-20T06:54:00.597Z,16.10
2019-06-20T06:56:30.166Z,16.10
2019-06-20T06:59:01.391Z,16.10
2019-06-20T07:01:31.079Z,16.10
2019-06-20T07:04:00.547Z,16.20
2019-06-20T07:06:30.006Z,16.20
2019-06-20T07:08:59.522Z,16.20
2019-06-20T07:11:29.043Z,16.20
2019-06-20T07:13:58.558Z,16.30
2019-06-20T07:16:28.333Z,16.40
2019-06-20T07:19:00.795Z,16.60
2019-06-20T07:21:33.082Z,16.60
2019-06-20T07:24:05.503Z,16.70
2019-06-20T07:26:34.919Z,16.70
2019-06-20T07:29:05.064Z,16.70
2019-06-20T07:31:35.841Z,16.70
2019-06-20T07:34:05.626Z,16.80
2019-06-20T07:36:35.254Z,16.80
2019-06-20T07:39:07.908Z,16.90
2019-06-20T07:41:37.394Z,16.90
2019-06-20T07:44:12.991Z,17.00
2019-06-20T07:46:43.117Z,17.00
2019-06-20T07:49:12.655Z,17.00
2019-06-20T07:51:42.099Z,17.10
2019-06-20T07:54:11.575Z,17.20
2019-06-20T07:56:41.050Z,17.20
2019-06-20T07:59:10.476Z,17.20
2019-06-20T08:01:39.931Z,17.20
2019-06-20T08:04:09.371Z,17.30
2019-06-20T08:06:38.893Z,17.30
2019-06-20T08:09:09.095Z,17.30
2019-06-20T08:11:38.552Z,17.20
2019-06-20T08:14:08.035Z,17.10
2019-06-20T08:16:37.583Z,17.10
2019-06-20T08:19:07.191Z,17.10
2019-06-20T08:21:36.797Z,17.10
2019-06-20T08:24:06.307Z,17.20
2019-06-20T08:26:35.766Z,17.40
2019-06-20T08:29:18.722Z,17.50
2019-06-20T08:31:36.691Z,17.60
2019-06-20T08:34:06.521Z,17.70
2019-06-20T08:36:35.983Z,17.70
2019-06-20T08:39:08.763Z,17.90
2019-06-20T08:41:38.215Z,18.00
2019-06-20T08:44:07.808Z,18.20
2019-06-20T08:46:37.258Z,18.50
2019-06-20T08:49:08.685Z,18.50
2019-06-20T08:51:38.163Z,18.40
2019-06-20T08:54:07.753Z,18.30
2019-06-20T08:56:37.228Z,18.20
2019-06-20T08:59:06.664Z,18.10
2019-06-20T09:01:38.695Z,18.00
2019-06-20T09:04:13.049Z,18.00
2019-06-20T09:06:42.694Z,18.10
2019-06-20T09:09:12.276Z,18.20
2019-06-20T09:11:41.731Z,18.50
2019-06-20T09:14:11.307Z,18.80
2019-06-20T09:16:40.690Z,18.80
2019-06-20T09:19:10.268Z,18.70
2019-06-20T09:21:39.804Z,18.60
2019-06-20T09:24:09.278Z,18.60
2019-06-20T09:26:40.310Z,18.50
2019-06-20T09:29:12.198Z,18.50
2019-06-20T09:31:41.666Z,18.60
2019-06-20T09:34:11.201Z,18.90
2019-06-20T09:36:40.723Z,19.10
2019-06-20T09:39:10.191Z,19.20
2019-06-20T09:41:39.639Z,19.30
2019-06-20T09:44:09.099Z,19.40
2019-06-20T09:46:38.544Z,19.30
2019-06-20T09:49:07.986Z,19.30
2019-06-20T09:51:37.514Z,19.50
2019-06-20T09:54:07.031Z,19.50
2019-06-20T09:56:36.467Z,19.60
2019-06-20T09:59:08.847Z,19.60
2019-06-20T10:01:38.300Z,19.80
2019-06-20T10:04:08.303Z,19.90
2019-06-20T10:06:38.779Z,20.10
2019-06-20T10:09:09.151Z,20.10
2019-06-20T10:11:38.852Z,20.00
2019-06-20T10:14:09.139Z,20.00
2019-06-20T10:16:45.793Z,19.90
2019-06-20T10:19:09.929Z,20.00
2019-06-20T10:21:39.792Z,20.00
2019-06-20T10:24:15.374Z,20.00
2019-06-20T10:26:44.906Z,20.00
2019-06-20T10:29:16.196Z,20.00
2019-06-20T10:31:47.936Z,20.00
2019-06-20T10:34:18.583Z,20.30
2019-06-20T10:36:48.199Z,20.40
2019-06-20T10:39:20.147Z,20.40
2019-06-20T10:41:50.248Z,20.50
2019-06-20T10:44:19.807Z,20.50
2019-06-20T10:46:51.445Z,20.40
2019-06-20T10:49:21.504Z,20.30
2019-06-20T10:51:51.968Z,20.20
2019-06-20T10:54:21.572Z,20.20
2019-06-20T10:56:54.304Z,20.50
2019-06-20T10:59:23.736Z,20.80
2019-06-20T11:01:53.190Z,20.90
2019-06-20T11:04:22.679Z,20.90
2019-06-20T11:06:52.148Z,20.90
2019-06-20T11:09:21.640Z,20.80
2019-06-20T11:11:51.042Z,20.60
2019-06-20T11:14:20.579Z,20.30
2019-06-20T11:16:50.020Z,20.20
2019-06-20T11:19:19.563Z,20.00
2019-06-20T11:21:49.184Z,20.00
2019-06-20T11:24:20.277Z,20.00
2019-06-20T11:26:49.812Z,20.10
2019-06-20T11:29:19.266Z,20.40
2019-06-20T11:31:49.625Z,20.50
2019-06-20T11:34:19.408Z,20.70
2019-06-20T11:36:48.999Z,20.90
2019-06-20T11:39:18.616Z,21.00
2019-06-20T11:41:48.541Z,21.30
2019-06-20T11:44:24.113Z,21.40
2019-06-20T11:46:55.003Z,21.30
2019-06-20T11:49:26.089Z,21.20
2019-06-20T11:51:57.010Z,21.10
2019-06-20T11:54:26.569Z,20.80
2019-06-20T11:56:57.551Z,20.60
2019-06-20T11:59:27.088Z,20.60
2019-06-20T12:01:56.578Z,20.70
2019-06-20T12:04:26.060Z,20.80
2019-06-20T12:06:55.508Z,21.00
2019-06-20T12:09:25.035Z,21.10
2019-06-20T12:11:54.855Z,21.20
2019-06-20T12:14:24.395Z,21.40
2019-06-20T12:16:53.827Z,21.40
2019-06-20T12:19:23.349Z,21.30
2019-06-20T12:21:54.150Z,21.20
2019-06-20T12:24:23.893Z,21.00
2019-06-20T12:26:54.906Z,20.80
2019-06-20T12:29:24.366Z,20.60
2019-06-20T12:31:56.321Z,20.70
2019-06-20T12:34:29.473Z,21.00
2019-06-20T12:36:59.021Z,21.30
2019-06-20T12:39:28.824Z,21.40
2019-06-20T12:41:59.859Z,21.30
2019-06-20T12:44:29.887Z,21.10
2019-06-20T12:46:59.439Z,20.90
2019-06-20T12:49:28.932Z,20.90
2019-06-20T12:51:58.507Z,21.10
2019-06-20T12:54:30.330Z,21.20
2019-06-20T12:56:59.979Z,21.20
2019-06-20T12:59:29.545Z,21.30
2019-06-20T13:02:03.380Z,21.20
2019-06-20T13:04:39.856Z,21.00
2019-06-20T13:07:11.472Z,20.90
2019-06-20T13:09:43.964Z,20.80
2019-06-20T13:12:16.811Z,20.80
2019-06-20T13:14:47.572Z,20.90
2019-06-20T13:17:20.161Z,21.20
2019-06-20T13:19:52.003Z,21.40
2019-06-20T13:22:23.357Z,21.20
2019-06-20T13:24:53.076Z,21.10
2019-06-20T13:27:24.085Z,20.70
2019-06-20T13:29:55.071Z,20.20
2019-06-20T13:32:24.518Z,19.90
2019-06-20T13:34:54.016Z,19.60
2019-06-20T13:37:25.560Z,19.50
2019-06-20T13:39:59.748Z,19.50
2019-06-20T13:42:35.296Z,19.60
2019-06-20T13:45:13.382Z,20.00
2019-06-20T13:47:45.601Z,20.10
2019-06-20T13:50:24.397Z,20.30
2019-06-20T13:52:55.014Z,20.20
2019-06-20T13:55:42.859Z,20.30
2019-06-20T13:58:20.700Z,20.60
2019-06-20T14:00:52.771Z,21.00
2019-06-20T14:03:25.916Z,21.10
2019-06-20T14:06:01.913Z,21.00
2019-06-20T14:08:35.241Z,21.00
2019-06-20T14:11:06.485Z,21.00
2019-06-20T14:13:41.090Z,21.50
2019-06-20T14:16:14.539Z,21.70
2019-06-20T14:18:44.475Z,21.50
2019-06-20T14:21:15.145Z,21.60
2019-06-20T14:23:46.070Z,21.60
2019-06-20T14:26:15.575Z,21.80
2019-06-20T14:28:46.094Z,21.70
2019-06-20T14:31:15.963Z,21.60
2019-06-20T14:33:46.151Z,21.70
2019-06-20T14:36:15.662Z,21.60
2019-06-20T14:38:45.738Z,21.50
2019-06-20T14:41:15.564Z,21.50
2019-06-20T14:43:46.158Z,21.30
2019-06-20T14:46:16.043Z,21.50
2019-06-20T14:48:46.826Z,21.70
2019-06-20T14:51:16.593Z,21.70
2019-06-20T14:53:47.155Z,21.50
2019-06-20T14:56:18.023Z,21.60
2019-06-20T14:58:48.691Z,21.60
2019-06-20T15:01:18.223Z,21.50
2019-06-20T15:03:48.993Z,21.30
2019-06-20T15:06:18.789Z,21.20
2019-06-20T15:08:49.205Z,21.30
2019-06-20T15:11:19.383Z,21.20
2019-06-20T15:13:49.341Z,21.10
2019-06-20T15:16:18.971Z,21.00
2019-06-20T15:18:51.999Z,21.00
2019-06-20T15:21:19.539Z,21.00
2019-06-20T15:23:49.506Z,21.00
2019-06-20T15:26:20.028Z,21.30
2019-06-20T15:28:51.316Z,22.60
2019-06-20T15:31:20.542Z,23.60
2019-06-20T15:33:51.498Z,23.80
2019-06-20T15:36:21.453Z,22.60
2019-06-20T15:38:51.151Z,21.80
2019-06-20T15:41:20.848Z,21.40
2019-06-20T15:43:51.747Z,21.30
2019-06-20T15:46:21.366Z,21.30
2019-06-20T15:48:50.794Z,21.80
2019-06-20T15:51:20.311Z,21.60
2019-06-20T15:53:49.767Z,21.20
2019-06-20T15:56:19.208Z,21.60
2019-06-20T15:58:48.675Z,22.10
2019-06-20T16:01:30.604Z,22.00
2019-06-20T16:04:01.055Z,21.60
2019-06-20T16:06:30.811Z,21.30
2019-06-20T16:09:00.796Z,21.30
2019-06-20T16:11:31.901Z,21.50
2019-06-20T16:14:01.338Z,21.70
2019-06-20T16:16:30.770Z,22.00
2019-06-20T16:19:00.254Z,22.00
2019-06-20T16:21:29.760Z,23.10
2019-06-20T16:24:00.270Z,24.70
2019-06-20T16:26:30.565Z,25.50
2019-06-20T16:29:00.007Z,24.50
2019-06-20T16:31:29.658Z,25.20
2019-06-20T16:33:59.115Z,25.70
2019-06-20T16:36:28.571Z,26.00
2019-06-20T16:38:58.031Z,26.80
2019-06-20T16:41:27.476Z,27.00
2019-06-20T16:43:56.954Z,27.20
2019-06-20T16:46:26.403Z,26.90
2019-06-20T16:48:55.860Z,26.20
2019-06-20T16:51:25.386Z,26.90
2019-06-20T16:53:54.857Z,27.90
2019-06-20T16:56:24.307Z,28.30
2019-06-20T16:58:53.811Z,28.10
2019-06-20T17:01:23.262Z,28.00
2019-06-20T17:03:52.646Z,28.00
2019-06-20T17:06:22.091Z,27.60
2019-06-20T17:08:51.546Z,28.00
2019-06-20T17:11:22.287Z,28.00
2019-06-20T17:13:51.731Z,26.90
2019-06-20T17:16:21.165Z,26.30
2019-06-20T17:18:50.622Z,27.70
2019-06-20T17:21:21.242Z,28.20
2019-06-20T17:23:50.803Z,28.70
2019-06-20T17:26:20.313Z,29.10
2019-06-20T17:28:49.775Z,29.20
2019-06-20T17:31:19.223Z,28.80
2019-06-20T17:33:57.555Z,27.80
2019-06-20T17:36:19.863Z,28.30
2019-06-20T17:38:49.329Z,28.60
2019-06-20T17:41:18.886Z,29.40
2019-06-20T17:43:48.407Z,29.50
2019-06-20T17:46:17.863Z,28.40
2019-06-20T17:48:47.298Z,26.60
2019-06-20T17:51:16.735Z,27.10
2019-06-20T17:53:48.918Z,27.70
2019-06-20T17:56:18.085Z,28.10
2019-06-20T17:58:47.751Z,28.10
2019-06-20T18:01:17.158Z,28.30
2019-06-20T18:03:46.632Z,28.90
2019-06-20T18:06:16.099Z,29.10
2019-06-20T18:08:45.563Z,29.10
2019-06-20T18:11:15.067Z,29.60
2019-06-20T18:13:44.512Z,29.40
2019-06-20T18:16:24.577Z,28.60
2019-06-20T18:18:45.032Z,27.10
2019-06-20T18:21:14.494Z,25.10
2019-06-20T18:23:43.942Z,24.80
2019-06-20T18:26:13.412Z,24.30
2019-06-20T18:28:42.872Z,24.60
2019-06-20T18:31:12.412Z,25.10
2019-06-20T18:33:41.856Z,25.70
2019-06-20T18:36:11.306Z,25.60
2019-06-20T18:38:40.818Z,25.90
2019-06-20T18:41:10.513Z,25.80
2019-06-20T18:43:39.951Z,25.80
2019-06-20T18:46:09.393Z,25.20
2019-06-20T18:48:38.918Z,24.00
2019-06-20T18:51:08.387Z,23.50
2019-06-20T18:53:37.823Z,23.50
2019-06-20T18:56:07.268Z,23.20
2019-06-20T18:58:36.734Z,23.50
2019-06-20T19:01:06.189Z,23.60
2019-06-20T19:03:35.669Z,23.90
2019-06-20T19:06:05.184Z,24.50
2019-06-20T19:08:34.633Z,24.90
2019-06-20T19:11:04.236Z,24.70
2019-06-20T19:13:33.692Z,24.60
2019-06-20T19:16:03.198Z,24.50
2019-06-20T19:18:32.691Z,23.80
2019-06-20T19:21:02.287Z,23.60
2019-06-20T19:23:31.714Z,23.50
2019-06-20T19:26:01.195Z,23.40
2019-06-20T19:28:31.587Z,23.00
2019-06-20T19:31:01.025Z,22.60
2019-06-20T19:33:30.588Z,22.10
2019-06-20T19:36:00.019Z,21.60
2019-06-20T19:38:29.481Z,21.10
2019-06-20T19:40:58.927Z,20.80
2019-06-20T19:43:28.385Z,20.30
2019-06-20T19:45:57.814Z,20.10
2019-06-20T19:48:27.259Z,19.80
2019-06-20T19:50:56.770Z,19.60
2019-06-20T19:53:26.292Z,19.60
2019-06-20T19:55:55.790Z,19.40
2019-06-20T19:58:25.307Z,19.30
2019-06-20T20:00:54.867Z,19.10
2019-06-20T20:03:24.406Z,18.90
2019-06-20T20:05:53.944Z,18.90
2019-06-20T20:08:23.430Z,18.80
2019-06-20T20:10:53.077Z,18.70
2019-06-20T20:13:22.552Z,18.70
2019-06-20T20:15:52.047Z,18.70
2019-06-20T20:18:21.581Z,18.60
2019-06-20T20:20:51.615Z,18.40
2019-06-20T20:23:21.096Z,18.40
2019-06-20T20:25:50.553Z,18.30
2019-06-20T20:28:20.028Z,18.20
2019-06-20T20:30:49.520Z,18.10
2019-06-20T20:33:19.005Z,18.00
2019-06-20T20:35:48.486Z,17.90
2019-06-20T20:38:17.993Z,17.80
2019-06-20T20:40:47.463Z,17.90
2019-06-20T20:43:16.935Z,18.10
2019-06-20T20:45:46.676Z,18.20
2019-06-20T20:48:16.165Z,18.20
2019-06-20T20:50:45.628Z,18.20
2019-06-20T20:53:15.137Z,18.10
2019-06-20T20:55:44.670Z,17.90
2019-06-20T20:58:14.085Z,17.80
2019-06-20T21:00:55.604Z,17.60
2019-06-20T21:03:25.196Z,17.50
2019-06-20T21:05:54.656Z,17.50
2019-06-20T21:08:24.150Z,17.40
2019-06-20T21:10:53.616Z,17.30
2019-06-20T21:13:23.093Z,17.20
2019-06-20T21:15:52.574Z,17.20
2019-06-20T21:18:22.070Z,17.10
2019-06-20T21:20:51.547Z,17.10
2019-06-20T21:23:21.033Z,17.00
2019-06-20T21:25:51.681Z,16.80
2019-06-20T21:28:21.150Z,16.70
2019-06-20T21:30:50.723Z,16.60
2019-06-20T21:33:20.178Z,16.50
2019-06-20T21:35:49.644Z,16.40
2019-06-20T21:38:19.149Z,16.30
2019-06-20T21:40:48.865Z,16.30
2019-06-20T21:43:18.334Z,16.30
2019-06-20T21:45:47.815Z,16.20
2019-06-20T21:48:17.464Z,16.10
2019-06-20T21:50:46.944Z,16.00
2019-06-20T21:53:16.419Z,15.90
2019-06-20T21:55:46.329Z,15.80
2019-06-20T21:58:15.792Z,15.70
2019-06-20T22:00:49.236Z,15.70
2019-06-20T22:03:19.672Z,15.60
2019-06-20T22:05:49.140Z,15.60
2019-06-20T22:08:18.699Z,15.60
2019-06-20T22:10:48.159Z,15.50
2019-06-20T22:13:17.629Z,15.50
2019-06-20T22:15:47.097Z,15.50
2019-06-20T22:18:16.656Z,15.40
2019-06-20T22:20:46.264Z,15.30
2019-06-20T22:23:15.749Z,15.20
2019-06-20T22:25:45.309Z,15.10
2019-06-20T22:28:14.844Z,15.10
2019-06-20T22:30:47.642Z,15.00
2019-06-20T22:33:17.139Z,15.00
2019-06-20T22:35:46.806Z,15.00
2019-06-20T22:38:16.336Z,15.00
2019-06-20T22:40:47.540Z,14.90
2019-06-20T22:43:17.318Z,14.80
2019-06-20T22:45:47.198Z,14.80
2019-06-20T22:48:16.660Z,14.80
2019-06-20T22:50:46.297Z,14.80
2019-06-20T22:53:15.794Z,14.80
2019-06-20T22:55:45.397Z,14.80
2019-06-20T22:58:14.880Z,14.80
2019-06-20T23:00:44.956Z,14.70
2019-06-20T23:03:15.259Z,14.70
2019-06-20T23:05:44.720Z,14.70
2019-06-20T23:08:14.210Z,14.60
2019-06-20T23:10:43.672Z,14.50
2019-06-20T23:13:13.269Z,14.60
2019-06-20T23:15:42.740Z,14.40
2019-06-20T23:18:12.204Z,14.40
2019-06-20T23:20:42.497Z,14.40
2019-06-20T23:23:11.979Z,14.30
2019-06-20T23:25:43.114Z,14.30
2019-06-20T23:28:12.589Z,14.20
2019-06-20T23:30:42.063Z,14.10
2019-06-20T23:33:11.631Z,14.10
2019-06-20T23:35:41.331Z,14.00
2019-06-20T23:38:10.794Z,14.00
2019-06-20T23:40:40.316Z,13.90
2019-06-20T23:43:09.781Z,13.90
2019-06-20T23:45:39.251Z,13.80
2019-06-20T23:48:08.736Z,13.80
2019-06-20T23:50:38.400Z,13.80
2019-06-20T23:53:12.640Z,13.70
2019-06-20T23:55:42.528Z,13.70
2019-06-20T23:58:12.073Z,13.70
